sensor_id;sensor_type;location;lat;lon;timestamp;temperature;humidity
18446;DHT22;9352;50.888;4.466;2023-04-24T00:00:40;10.10;99.90
18446;DHT22;9352;50.888;4.466;2023-04-24T00:03:07;10.20;99.90
18446;DHT22;9352;50.888;4.466;2023-04-24T00:05:34;10.20;99.90
18446;DHT22;9352;50.888;4.466;2023-04-24T00:08:01;10.10;99.90
18446;DHT22;9352;50.888;4.466;2023-04-24T00:10:28;10.20;99.90
18446;DHT22;9352;50.888;4.466;2023-04-24T00:12:55;10.10;99.90
18446;DHT22;9352;50.888;4.466;2023-04-24T00:15:22;10.10;99.90
18446;DHT22;9352;50.888;4.466;2023-04-24T00:17:51;10.10;99.90
18446;DHT22;9352;50.888;4.466;2023-04-24T00:20:18;10.20;99.90
18446;DHT22;9352;50.888;4.466;2023-04-24T00:22:45;10.20;99.90
18446;DHT22;9352;50.888;4.466;2023-04-24T00:25:12;10.20;99.90
18446;DHT22;9352;50.888;4.466;2023-04-24T00:27:39;10.10;99.90
18446;DHT22;9352;50.888;4.466;2023-04-24T00:30:07;10.10;99.90
18446;DHT22;9352;50.888;4.466;2023-04-24T00:32:34;10.10;99.90
18446;DHT22;9352;50.888;4.466;2023-04-24T00:35:03;10.00;99.90
18446;DHT22;9352;50.888;4.466;2023-04-24T00:37:31;10.00;99.90
18446;DHT22;9352;50.888;4.466;2023-04-24T00:39:58;10.00;99.90
18446;DHT22;9352;50.888;4.466;2023-04-24T00:42:25;9.90;99.90
18446;DHT22;9352;50.888;4.466;2023-04-24T00:44:52;9.90;99.90
18446;DHT22;9352;50.888;4.466;2023-04-24T00:47:20;9.90;99.90
18446;DHT22;9352;50.888;4.466;2023-04-24T00:49:47;9.80;99.90
18446;DHT22;9352;50.888;4.466;2023-04-24T00:52:15;9.80;99.90
18446;DHT22;9352;50.888;4.466;2023-04-24T00:54:43;9.90;99.90
18446;DHT22;9352;50.888;4.466;2023-04-24T00:57:10;9.80;99.90
18446;DHT22;9352;50.888;4.466;2023-04-24T00:59:37;9.80;99.90
18446;DHT22;9352;50.888;4.466;2023-04-24T01:02:06;9.80;99.90
18446;DHT22;9352;50.888;4.466;2023-04-24T01:04:34;9.90;99.90
18446;DHT22;9352;50.888;4.466;2023-04-24T01:07:01;9.80;99.90
18446;DHT22;9352;50.888;4.466;2023-04-24T01:09:30;9.80;99.90
18446;DHT22;9352;50.888;4.466;2023-04-24T01:11:57;9.80;99.90
18446;DHT22;9352;50.888;4.466;2023-04-24T01:14:24;9.80;99.90
18446;DHT22;9352;50.888;4.466;2023-04-24T01:16:51;9.80;99.90
18446;DHT22;9352;50.888;4.466;2023-04-24T01:19:18;9.80;99.90
18446;DHT22;9352;50.888;4.466;2023-04-24T01:21:47;9.70;99.90
18446;DHT22;9352;50.888;4.466;2023-04-24T01:24:19;9.70;99.90
18446;DHT22;9352;50.888;4.466;2023-04-24T01:26:46;9.70;99.90
18446;DHT22;9352;50.888;4.466;2023-04-24T01:29:13;9.70;99.90
18446;DHT22;9352;50.888;4.466;2023-04-24T01:31:39;9.70;99.90
18446;DHT22;9352;50.888;4.466;2023-04-24T01:34:06;9.70;99.90
18446;DHT22;9352;50.888;4.466;2023-04-24T01:36:35;9.70;99.90
18446;DHT22;9352;50.888;4.466;2023-04-24T01:39:02;9.60;99.90
18446;DHT22;9352;50.888;4.466;2023-04-24T01:41:31;9.70;99.90
18446;DHT22;9352;50.888;4.466;2023-04-24T01:43:58;9.70;99.90
18446;DHT22;9352;50.888;4.466;2023-04-24T01:46:25;9.70;99.90
18446;DHT22;9352;50.888;4.466;2023-04-24T01:48:52;9.60;99.90
18446;DHT22;9352;50.888;4.466;2023-04-24T01:51:20;9.60;99.90
18446;DHT22;9352;50.888;4.466;2023-04-24T01:53:47;9.60;99.90
18446;DHT22;9352;50.888;4.466;2023-04-24T01:56:14;9.60;99.90
18446;DHT22;9352;50.888;4.466;2023-04-24T01:58:43;9.50;99.90
18446;DHT22;9352;50.888;4.466;2023-04-24T02:01:15;9.50;99.90
18446;DHT22;9352;50.888;4.466;2023-04-24T02:03:44;9.50;99.90
18446;DHT22;9352;50.888;4.466;2023-04-24T02:06:11;9.50;99.90
18446;DHT22;9352;50.888;4.466;2023-04-24T02:08:38;9.50;99.90
18446;DHT22;9352;50.888;4.466;2023-04-24T02:11:05;9.50;99.90
18446;DHT22;9352;50.888;4.466;2023-04-24T02:13:32;9.50;99.90
18446;DHT22;9352;50.888;4.466;2023-04-24T02:16:00;9.50;99.90
18446;DHT22;9352;50.888;4.466;2023-04-24T02:18:27;9.50;99.90
18446;DHT22;9352;50.888;4.466;2023-04-24T02:20:54;9.50;99.90
18446;DHT22;9352;50.888;4.466;2023-04-24T02:23:20;9.50;99.90
18446;DHT22;9352;50.888;4.466;2023-04-24T02:25:47;9.50;99.90
18446;DHT22;9352;50.888;4.466;2023-04-24T02:28:14;9.50;99.90
18446;DHT22;9352;50.888;4.466;2023-04-24T02:30:41;9.50;99.90
18446;DHT22;9352;50.888;4.466;2023-04-24T02:33:09;9.50;99.90
18446;DHT22;9352;50.888;4.466;2023-04-24T02:35:36;9.50;99.90
18446;DHT22;9352;50.888;4.466;2023-04-24T02:38:03;9.50;99.90
18446;DHT22;9352;50.888;4.466;2023-04-24T02:40:30;9.50;99.90
18446;DHT22;9352;50.888;4.466;2023-04-24T02:42:57;9.50;99.90
18446;DHT22;9352;50.888;4.466;2023-04-24T02:45:24;9.50;99.90
18446;DHT22;9352;50.888;4.466;2023-04-24T02:47:51;9.50;99.90
18446;DHT22;9352;50.888;4.466;2023-04-24T02:50:19;9.40;99.90
18446;DHT22;9352;50.888;4.466;2023-04-24T02:52:46;9.50;99.90
18446;DHT22;9352;50.888;4.466;2023-04-24T02:55:13;9.40;99.90
18446;DHT22;9352;50.888;4.466;2023-04-24T02:57:39;9.40;99.90
18446;DHT22;9352;50.888;4.466;2023-04-24T03:00:07;9.40;99.90
18446;DHT22;9352;50.888;4.466;2023-04-24T03:02:34;9.40;99.90
18446;DHT22;9352;50.888;4.466;2023-04-24T03:05:01;9.40;99.90
18446;DHT22;9352;50.888;4.466;2023-04-24T03:07:31;9.40;99.90
18446;DHT22;9352;50.888;4.466;2023-04-24T03:09:58;9.40;99.90
18446;DHT22;9352;50.888;4.466;2023-04-24T03:12:25;9.40;99.90
18446;DHT22;9352;50.888;4.466;2023-04-24T03:14:52;9.40;99.90
18446;DHT22;9352;50.888;4.466;2023-04-24T03:17:18;9.40;99.90
18446;DHT22;9352;50.888;4.466;2023-04-24T03:19:45;9.40;99.90
18446;DHT22;9352;50.888;4.466;2023-04-24T03:22:12;9.40;99.90
18446;DHT22;9352;50.888;4.466;2023-04-24T03:24:41;9.40;99.90
18446;DHT22;9352;50.888;4.466;2023-04-24T03:27:08;9.40;99.90
18446;DHT22;9352;50.888;4.466;2023-04-24T03:29:34;9.40;99.90
18446;DHT22;9352;50.888;4.466;2023-04-24T03:32:01;9.40;99.90
18446;DHT22;9352;50.888;4.466;2023-04-24T03:34:28;9.30;99.90
18446;DHT22;9352;50.888;4.466;2023-04-24T03:36:55;9.30;99.90
18446;DHT22;9352;50.888;4.466;2023-04-24T03:39:22;9.30;99.90
18446;DHT22;9352;50.888;4.466;2023-04-24T03:41:52;9.30;99.90
18446;DHT22;9352;50.888;4.466;2023-04-24T03:44:19;9.30;99.90
18446;DHT22;9352;50.888;4.466;2023-04-24T03:46:45;9.30;99.90
18446;DHT22;9352;50.888;4.466;2023-04-24T03:49:12;9.30;99.90
18446;DHT22;9352;50.888;4.466;2023-04-24T03:51:39;9.20;99.90
18446;DHT22;9352;50.888;4.466;2023-04-24T03:54:06;9.20;99.90
18446;DHT22;9352;50.888;4.466;2023-04-24T03:56:33;9.20;99.90
18446;DHT22;9352;50.888;4.466;2023-04-24T03:59:01;9.20;99.90
18446;DHT22;9352;50.888;4.466;2023-04-24T04:01:28;9.20;99.90
18446;DHT22;9352;50.888;4.466;2023-04-24T04:03:56;9.20;99.90
18446;DHT22;9352;50.888;4.466;2023-04-24T04:06:23;9.10;99.90
18446;DHT22;9352;50.888;4.466;2023-04-24T04:08:50;9.20;99.90
18446;DHT22;9352;50.888;4.466;2023-04-24T04:11:17;9.10;99.90
18446;DHT22;9352;50.888;4.466;2023-04-24T04:13:43;9.10;99.90
18446;DHT22;9352;50.888;4.466;2023-04-24T04:16:12;9.10;99.90
18446;DHT22;9352;50.888;4.466;2023-04-24T04:18:39;9.10;99.90
18446;DHT22;9352;50.888;4.466;2023-04-24T04:21:06;9.10;99.90
18446;DHT22;9352;50.888;4.466;2023-04-24T04:23:33;9.20;99.90
18446;DHT22;9352;50.888;4.466;2023-04-24T04:26:00;9.20;99.90
18446;DHT22;9352;50.888;4.466;2023-04-24T04:28:27;9.10;99.90
18446;DHT22;9352;50.888;4.466;2023-04-24T04:30:54;9.10;99.90
18446;DHT22;9352;50.888;4.466;2023-04-24T04:33:22;9.10;99.90
18446;DHT22;9352;50.888;4.466;2023-04-24T04:35:50;9.10;99.90
18446;DHT22;9352;50.888;4.466;2023-04-24T04:38:18;9.10;99.90
18446;DHT22;9352;50.888;4.466;2023-04-24T04:40:45;9.00;99.90
18446;DHT22;9352;50.888;4.466;2023-04-24T04:43:13;9.00;99.90
18446;DHT22;9352;50.888;4.466;2023-04-24T04:45:40;9.00;99.90
18446;DHT22;9352;50.888;4.466;2023-04-24T04:48:08;9.00;99.90
18446;DHT22;9352;50.888;4.466;2023-04-24T04:50:39;8.90;99.90
18446;DHT22;9352;50.888;4.466;2023-04-24T04:53:06;9.00;99.90
18446;DHT22;9352;50.888;4.466;2023-04-24T04:55:33;8.90;99.90
18446;DHT22;9352;50.888;4.466;2023-04-24T04:58:00;8.90;99.90
18446;DHT22;9352;50.888;4.466;2023-04-24T05:00:27;8.90;99.90
18446;DHT22;9352;50.888;4.466;2023-04-24T05:02:54;8.90;99.90
18446;DHT22;9352;50.888;4.466;2023-04-24T05:05:21;8.90;99.90
18446;DHT22;9352;50.888;4.466;2023-04-24T05:07:50;8.90;99.90
18446;DHT22;9352;50.888;4.466;2023-04-24T05:10:17;8.90;99.90
18446;DHT22;9352;50.888;4.466;2023-04-24T05:12:44;8.90;99.90
18446;DHT22;9352;50.888;4.466;2023-04-24T05:15:11;8.90;99.90
18446;DHT22;9352;50.888;4.466;2023-04-24T05:17:38;8.90;99.90
18446;DHT22;9352;50.888;4.466;2023-04-24T05:20:07;8.90;99.90
18446;DHT22;9352;50.888;4.466;2023-04-24T05:22:35;8.90;99.90
18446;DHT22;9352;50.888;4.466;2023-04-24T05:25:04;8.90;99.90
18446;DHT22;9352;50.888;4.466;2023-04-24T05:27:31;8.90;99.90
18446;DHT22;9352;50.888;4.466;2023-04-24T05:29:58;8.90;99.90
18446;DHT22;9352;50.888;4.466;2023-04-24T05:32:25;8.90;99.90
18446;DHT22;9352;50.888;4.466;2023-04-24T05:34:52;8.90;99.90
18446;DHT22;9352;50.888;4.466;2023-04-24T05:37:19;8.80;99.90
18446;DHT22;9352;50.888;4.466;2023-04-24T05:39:46;8.90;99.90
18446;DHT22;9352;50.888;4.466;2023-04-24T05:42:14;8.80;99.90
18446;DHT22;9352;50.888;4.466;2023-04-24T05:44:41;8.80;99.90
18446;DHT22;9352;50.888;4.466;2023-04-24T05:47:08;8.90;99.90
18446;DHT22;9352;50.888;4.466;2023-04-24T05:49:35;8.90;99.90
18446;DHT22;9352;50.888;4.466;2023-04-24T05:52:02;8.90;99.90
18446;DHT22;9352;50.888;4.466;2023-04-24T05:54:29;8.90;99.90
18446;DHT22;9352;50.888;4.466;2023-04-24T05:56:56;8.90;99.90
18446;DHT22;9352;50.888;4.466;2023-04-24T05:59:25;8.90;99.90
18446;DHT22;9352;50.888;4.466;2023-04-24T06:01:52;8.90;99.90
18446;DHT22;9352;50.888;4.466;2023-04-24T06:04:18;8.90;99.90
18446;DHT22;9352;50.888;4.466;2023-04-24T06:06:45;8.90;99.90
18446;DHT22;9352;50.888;4.466;2023-04-24T06:09:16;8.90;99.90
18446;DHT22;9352;50.888;4.466;2023-04-24T06:11:43;8.90;99.90
18446;DHT22;9352;50.888;4.466;2023-04-24T06:14:10;8.90;99.90
18446;DHT22;9352;50.888;4.466;2023-04-24T06:16:40;8.90;99.90
18446;DHT22;9352;50.888;4.466;2023-04-24T06:19:07;8.90;99.90
18446;DHT22;9352;50.888;4.466;2023-04-24T06:21:34;9.00;99.90
18446;DHT22;9352;50.888;4.466;2023-04-24T06:24:00;9.00;99.90
18446;DHT22;9352;50.888;4.466;2023-04-24T06:26:28;9.00;99.90
18446;DHT22;9352;50.888;4.466;2023-04-24T06:28:54;9.00;99.90
18446;DHT22;9352;50.888;4.466;2023-04-24T06:31:21;9.00;99.90
18446;DHT22;9352;50.888;4.466;2023-04-24T06:33:50;9.10;99.90
18446;DHT22;9352;50.888;4.466;2023-04-24T06:36:17;9.10;99.90
18446;DHT22;9352;50.888;4.466;2023-04-24T06:38:44;9.10;99.90
18446;DHT22;9352;50.888;4.466;2023-04-24T06:41:11;9.10;99.90
18446;DHT22;9352;50.888;4.466;2023-04-24T06:43:38;9.20;99.90
18446;DHT22;9352;50.888;4.466;2023-04-24T06:46:05;9.20;99.90
18446;DHT22;9352;50.888;4.466;2023-04-24T06:48:32;9.20;99.90
18446;DHT22;9352;50.888;4.466;2023-04-24T06:51:00;9.20;99.90
18446;DHT22;9352;50.888;4.466;2023-04-24T06:53:27;9.20;99.90
18446;DHT22;9352;50.888;4.466;2023-04-24T06:55:54;9.20;99.90
18446;DHT22;9352;50.888;4.466;2023-04-24T06:58:21;9.30;99.90
18446;DHT22;9352;50.888;4.466;2023-04-24T07:00:48;9.30;99.90
18446;DHT22;9352;50.888;4.466;2023-04-24T07:03:15;9.40;99.90
18446;DHT22;9352;50.888;4.466;2023-04-24T07:05:42;9.50;99.90
18446;DHT22;9352;50.888;4.466;2023-04-24T07:08:10;9.50;99.90
18446;DHT22;9352;50.888;4.466;2023-04-24T07:10:37;9.50;99.90
18446;DHT22;9352;50.888;4.466;2023-04-24T07:13:04;9.50;99.90
18446;DHT22;9352;50.888;4.466;2023-04-24T07:15:32;9.60;99.90
18446;DHT22;9352;50.888;4.466;2023-04-24T07:17:59;9.60;99.90
18446;DHT22;9352;50.888;4.466;2023-04-24T07:20:26;9.60;99.90
18446;DHT22;9352;50.888;4.466;2023-04-24T07:22:53;9.50;99.90
18446;DHT22;9352;50.888;4.466;2023-04-24T07:25:21;9.60;99.90
18446;DHT22;9352;50.888;4.466;2023-04-24T07:27:48;9.60;99.90
18446;DHT22;9352;50.888;4.466;2023-04-24T07:30:15;9.60;99.90
18446;DHT22;9352;50.888;4.466;2023-04-24T07:32:42;9.50;99.90
18446;DHT22;9352;50.888;4.466;2023-04-24T07:35:09;9.40;99.90
18446;DHT22;9352;50.888;4.466;2023-04-24T07:37:36;9.50;99.90
18446;DHT22;9352;50.888;4.466;2023-04-24T07:40:03;9.50;99.90
18446;DHT22;9352;50.888;4.466;2023-04-24T07:42:32;9.60;99.90
18446;DHT22;9352;50.888;4.466;2023-04-24T07:45:00;9.60;99.90
18446;DHT22;9352;50.888;4.466;2023-04-24T07:47:27;9.70;99.90
18446;DHT22;9352;50.888;4.466;2023-04-24T07:49:54;9.80;99.90
18446;DHT22;9352;50.888;4.466;2023-04-24T07:52:20;9.90;99.90
18446;DHT22;9352;50.888;4.466;2023-04-24T07:54:47;9.90;99.90
18446;DHT22;9352;50.888;4.466;2023-04-24T07:57:15;10.10;99.90
18446;DHT22;9352;50.888;4.466;2023-04-24T07:59:43;10.30;99.90
18446;DHT22;9352;50.888;4.466;2023-04-24T08:02:10;10.60;99.90
18446;DHT22;9352;50.888;4.466;2023-04-24T08:04:37;10.90;99.90
18446;DHT22;9352;50.888;4.466;2023-04-24T08:07:04;11.00;99.90
18446;DHT22;9352;50.888;4.466;2023-04-24T08:09:31;11.10;99.90
18446;DHT22;9352;50.888;4.466;2023-04-24T08:11:58;11.00;99.90
18446;DHT22;9352;50.888;4.466;2023-04-24T08:14:25;10.90;99.90
18446;DHT22;9352;50.888;4.466;2023-04-24T08:16:54;10.90;99.90
18446;DHT22;9352;50.888;4.466;2023-04-24T08:19:21;10.80;99.90
18446;DHT22;9352;50.888;4.466;2023-04-24T08:21:48;10.90;99.90
18446;DHT22;9352;50.888;4.466;2023-04-24T08:24:15;11.00;99.90
18446;DHT22;9352;50.888;4.466;2023-04-24T08:26:42;11.10;99.90
18446;DHT22;9352;50.888;4.466;2023-04-24T08:29:09;11.10;99.90
18446;DHT22;9352;50.888;4.466;2023-04-24T08:31:36;11.10;99.90
18446;DHT22;9352;50.888;4.466;2023-04-24T08:34:04;11.30;99.90
18446;DHT22;9352;50.888;4.466;2023-04-24T08:36:32;11.40;99.90
18446;DHT22;9352;50.888;4.466;2023-04-24T08:38:59;11.30;99.90
18446;DHT22;9352;50.888;4.466;2023-04-24T08:41:27;11.60;99.90
18446;DHT22;9352;50.888;4.466;2023-04-24T08:43:55;11.90;99.90
18446;DHT22;9352;50.888;4.466;2023-04-24T08:46:24;12.00;99.90
18446;DHT22;9352;50.888;4.466;2023-04-24T08:48:52;11.90;99.90
18446;DHT22;9352;50.888;4.466;2023-04-24T08:51:20;11.90;99.90
18446;DHT22;9352;50.888;4.466;2023-04-24T08:53:48;11.70;99.90
18446;DHT22;9352;50.888;4.466;2023-04-24T08:56:15;11.70;99.90
18446;DHT22;9352;50.888;4.466;2023-04-24T08:58:43;11.70;99.90
18446;DHT22;9352;50.888;4.466;2023-04-24T09:01:11;11.70;99.90
18446;DHT22;9352;50.888;4.466;2023-04-24T09:03:38;11.60;99.90
18446;DHT22;9352;50.888;4.466;2023-04-24T09:06:06;11.50;99.90
18446;DHT22;9352;50.888;4.466;2023-04-24T09:08:36;11.60;99.90
18446;DHT22;9352;50.888;4.466;2023-04-24T09:11:03;11.70;99.90
18446;DHT22;9352;50.888;4.466;2023-04-24T09:13:30;11.80;99.90
18446;DHT22;9352;50.888;4.466;2023-04-24T09:15:58;12.00;99.90
18446;DHT22;9352;50.888;4.466;2023-04-24T09:18:26;12.10;99.90
18446;DHT22;9352;50.888;4.466;2023-04-24T09:21:09;12.70;99.90
18446;DHT22;9352;50.888;4.466;2023-04-24T09:23:38;12.90;99.90
18446;DHT22;9352;50.888;4.466;2023-04-24T09:26:09;12.90;99.90
18446;DHT22;9352;50.888;4.466;2023-04-24T09:28:40;12.70;99.90
18446;DHT22;9352;50.888;4.466;2023-04-24T09:31:08;12.60;99.90
18446;DHT22;9352;50.888;4.466;2023-04-24T09:33:38;12.50;99.90
18446;DHT22;9352;50.888;4.466;2023-04-24T09:36:05;12.30;99.90
18446;DHT22;9352;50.888;4.466;2023-04-24T09:38:34;12.70;99.90
18446;DHT22;9352;50.888;4.466;2023-04-24T09:41:05;12.90;99.90
18446;DHT22;9352;50.888;4.466;2023-04-24T09:43:36;12.60;99.90
18446;DHT22;9352;50.888;4.466;2023-04-24T09:46:05;12.40;99.90
18446;DHT22;9352;50.888;4.466;2023-04-24T09:48:33;12.30;99.90
18446;DHT22;9352;50.888;4.466;2023-04-24T09:51:01;12.30;99.90
18446;DHT22;9352;50.888;4.466;2023-04-24T09:53:30;13.30;99.90
18446;DHT22;9352;50.888;4.466;2023-04-24T09:56:06;13.90;99.90
18446;DHT22;9352;50.888;4.466;2023-04-24T09:58:35;13.70;99.90
18446;DHT22;9352;50.888;4.466;2023-04-24T10:01:02;13.50;99.90
18446;DHT22;9352;50.888;4.466;2023-04-24T10:03:30;13.40;99.90
18446;DHT22;9352;50.888;4.466;2023-04-24T10:05:59;13.00;99.90
18446;DHT22;9352;50.888;4.466;2023-04-24T10:08:26;12.80;99.90
18446;DHT22;9352;50.888;4.466;2023-04-24T10:11:00;12.70;99.90
18446;DHT22;9352;50.888;4.466;2023-04-24T10:13:29;12.70;99.90
18446;DHT22;9352;50.888;4.466;2023-04-24T10:15:59;13.00;99.90
18446;DHT22;9352;50.888;4.466;2023-04-24T10:18:27;13.10;99.90
18446;DHT22;9352;50.888;4.466;2023-04-24T10:20:54;13.10;99.90
18446;DHT22;9352;50.888;4.466;2023-04-24T10:23:22;13.30;99.90
18446;DHT22;9352;50.888;4.466;2023-04-24T10:25:49;13.40;99.90
18446;DHT22;9352;50.888;4.466;2023-04-24T10:28:18;13.60;99.90
18446;DHT22;9352;50.888;4.466;2023-04-24T10:30:47;13.50;99.90
18446;DHT22;9352;50.888;4.466;2023-04-24T10:33:16;13.60;99.90
18446;DHT22;9352;50.888;4.466;2023-04-24T10:35:46;13.60;99.90
18446;DHT22;9352;50.888;4.466;2023-04-24T10:38:23;13.60;99.90
18446;DHT22;9352;50.888;4.466;2023-04-24T10:40:51;13.80;99.90
18446;DHT22;9352;50.888;4.466;2023-04-24T10:43:18;13.70;99.90
18446;DHT22;9352;50.888;4.466;2023-04-24T10:59:07;13.70;99.90
18446;DHT22;9352;50.888;4.466;2023-04-24T11:01:38;14.70;99.90
18446;DHT22;9352;50.888;4.466;2023-04-24T11:04:05;15.20;99.90
18446;DHT22;9352;50.888;4.466;2023-04-24T11:06:33;14.90;99.90
18446;DHT22;9352;50.888;4.466;2023-04-24T11:09:05;14.40;99.90
18446;DHT22;9352;50.888;4.466;2023-04-24T11:11:34;14.10;99.90
18446;DHT22;9352;50.888;4.466;2023-04-24T11:14:04;13.80;99.90
18446;DHT22;9352;50.888;4.466;2023-04-24T11:16:33;13.50;99.90
18446;DHT22;9352;50.888;4.466;2023-04-24T11:19:02;13.40;99.90
18446;DHT22;9352;50.888;4.466;2023-04-24T11:21:32;13.20;99.90
18446;DHT22;9352;50.888;4.466;2023-04-24T11:27:12;13.60;99.90
18446;DHT22;9352;50.888;4.466;2023-04-24T11:29:44;13.60;99.90
18446;DHT22;9352;50.888;4.466;2023-04-24T11:32:22;14.00;99.90
18446;DHT22;9352;50.888;4.466;2023-04-24T11:34:51;14.10;99.90
18446;DHT22;9352;50.888;4.466;2023-04-24T11:37:19;14.00;99.90
18446;DHT22;9352;50.888;4.466;2023-04-24T11:39:45;13.90;99.90
18446;DHT22;9352;50.888;4.466;2023-04-24T11:42:15;13.70;99.90
18446;DHT22;9352;50.888;4.466;2023-04-24T11:44:43;14.10;99.90
18446;DHT22;9352;50.888;4.466;2023-04-24T11:47:13;14.60;99.90
18446;DHT22;9352;50.888;4.466;2023-04-24T11:49:39;14.70;99.90
18446;DHT22;9352;50.888;4.466;2023-04-24T11:52:06;14.40;99.90
18446;DHT22;9352;50.888;4.466;2023-04-24T11:54:33;14.10;99.90
18446;DHT22;9352;50.888;4.466;2023-04-24T11:57:04;13.80;99.90
18446;DHT22;9352;50.888;4.466;2023-04-24T11:59:35;14.10;99.90
18446;DHT22;9352;50.888;4.466;2023-04-24T12:02:04;15.40;99.90
18446;DHT22;9352;50.888;4.466;2023-04-24T12:04:39;15.40;99.90
18446;DHT22;9352;50.888;4.466;2023-04-24T12:07:06;15.30;99.90
18446;DHT22;9352;50.888;4.466;2023-04-24T12:09:41;15.20;99.90
18446;DHT22;9352;50.888;4.466;2023-04-24T12:12:08;14.60;99.90
18446;DHT22;9352;50.888;4.466;2023-04-24T12:14:46;14.10;99.90
18446;DHT22;9352;50.888;4.466;2023-04-24T12:17:15;14.40;99.90
18446;DHT22;9352;50.888;4.466;2023-04-24T12:19:46;15.00;99.90
18446;DHT22;9352;50.888;4.466;2023-04-24T12:22:13;16.50;99.90
18446;DHT22;9352;50.888;4.466;2023-04-24T12:24:56;16.70;99.90
18446;DHT22;9352;50.888;4.466;2023-04-24T12:27:23;16.10;99.90
18446;DHT22;9352;50.888;4.466;2023-04-24T12:29:55;15.50;99.90
18446;DHT22;9352;50.888;4.466;2023-04-24T12:32:24;15.30;99.90
18446;DHT22;9352;50.888;4.466;2023-04-24T12:34:52;15.40;99.90
18446;DHT22;9352;50.888;4.466;2023-04-24T12:37:19;15.40;99.90
18446;DHT22;9352;50.888;4.466;2023-04-24T12:40:02;14.90;99.90
18446;DHT22;9352;50.888;4.466;2023-04-24T12:42:30;14.60;99.90
18446;DHT22;9352;50.888;4.466;2023-04-24T12:44:58;14.50;99.90
18446;DHT22;9352;50.888;4.466;2023-04-24T12:47:28;15.50;99.90
18446;DHT22;9352;50.888;4.466;2023-04-24T12:49:56;15.40;99.90
18446;DHT22;9352;50.888;4.466;2023-04-24T12:52:23;16.10;99.90
18446;DHT22;9352;50.888;4.466;2023-04-24T12:54:53;17.60;99.90
18446;DHT22;9352;50.888;4.466;2023-04-24T12:57:20;17.70;99.90
18446;DHT22;9352;50.888;4.466;2023-04-24T12:59:47;18.00;99.90
18446;DHT22;9352;50.888;4.466;2023-04-24T13:02:14;18.50;99.90
18446;DHT22;9352;50.888;4.466;2023-04-24T13:04:45;19.00;99.90
18446;DHT22;9352;50.888;4.466;2023-04-24T13:07:13;19.30;99.90
18446;DHT22;9352;50.888;4.466;2023-04-24T13:09:40;20.30;99.90
18446;DHT22;9352;50.888;4.466;2023-04-24T13:12:07;19.90;99.90
18446;DHT22;9352;50.888;4.466;2023-04-24T13:14:34;20.50;99.90
18446;DHT22;9352;50.888;4.466;2023-04-24T13:17:02;21.00;99.90
18446;DHT22;9352;50.888;4.466;2023-04-24T13:19:29;21.40;99.90
18446;DHT22;9352;50.888;4.466;2023-04-24T13:21:58;22.90;99.90
18446;DHT22;9352;50.888;4.466;2023-04-24T13:24:25;23.50;99.90
18446;DHT22;9352;50.888;4.466;2023-04-24T13:26:52;24.00;99.90
18446;DHT22;9352;50.888;4.466;2023-04-24T13:29:19;24.30;99.90
18446;DHT22;9352;50.888;4.466;2023-04-24T13:31:46;22.10;99.90
18446;DHT22;9352;50.888;4.466;2023-04-24T13:34:14;20.40;99.90
18446;DHT22;9352;50.888;4.466;2023-04-24T13:36:41;19.00;99.90
18446;DHT22;9352;50.888;4.466;2023-04-24T13:39:10;18.20;99.90
18446;DHT22;9352;50.888;4.466;2023-04-24T13:41:37;18.70;99.90
18446;DHT22;9352;50.888;4.466;2023-04-24T13:44:05;18.40;99.90
18446;DHT22;9352;50.888;4.466;2023-04-24T13:46:32;19.10;99.90
18446;DHT22;9352;50.888;4.466;2023-04-24T13:49:01;19.60;99.90
18446;DHT22;9352;50.888;4.466;2023-04-24T13:51:29;20.00;99.90
18446;DHT22;9352;50.888;4.466;2023-04-24T13:53:56;18.80;99.90
18446;DHT22;9352;50.888;4.466;2023-04-24T13:56:24;18.00;99.90
18446;DHT22;9352;50.888;4.466;2023-04-24T13:58:51;17.80;99.90
18446;DHT22;9352;50.888;4.466;2023-04-24T14:01:19;17.50;99.90
18446;DHT22;9352;50.888;4.466;2023-04-24T14:03:46;17.30;99.90
18446;DHT22;9352;50.888;4.466;2023-04-24T14:06:13;16.30;99.90
18446;DHT22;9352;50.888;4.466;2023-04-24T14:08:40;17.20;99.90
18446;DHT22;9352;50.888;4.466;2023-04-24T14:11:07;17.60;99.90
18446;DHT22;9352;50.888;4.466;2023-04-24T14:13:35;19.50;99.90
18446;DHT22;9352;50.888;4.466;2023-04-24T14:16:03;19.80;99.90
18446;DHT22;9352;50.888;4.466;2023-04-24T14:18:30;18.40;99.90
18446;DHT22;9352;50.888;4.466;2023-04-24T14:20:57;17.80;99.90
18446;DHT22;9352;50.888;4.466;2023-04-24T14:23:24;17.30;99.90
18446;DHT22;9352;50.888;4.466;2023-04-24T14:25:51;17.30;99.90
18446;DHT22;9352;50.888;4.466;2023-04-24T14:28:19;16.80;99.90
18446;DHT22;9352;50.888;4.466;2023-04-24T14:30:47;16.90;99.90
18446;DHT22;9352;50.888;4.466;2023-04-24T14:33:14;16.90;99.90
18446;DHT22;9352;50.888;4.466;2023-04-24T14:35:42;16.20;99.90
18446;DHT22;9352;50.888;4.466;2023-04-24T14:38:09;15.90;99.90
18446;DHT22;9352;50.888;4.466;2023-04-24T14:40:36;15.60;99.90
18446;DHT22;9352;50.888;4.466;2023-04-24T14:43:03;15.30;99.90
18446;DHT22;9352;50.888;4.466;2023-04-24T14:45:30;14.90;99.90
18446;DHT22;9352;50.888;4.466;2023-04-24T14:47:58;14.60;99.90
18446;DHT22;9352;50.888;4.466;2023-04-24T14:50:25;14.50;99.90
18446;DHT22;9352;50.888;4.466;2023-04-24T14:52:53;14.60;99.90
18446;DHT22;9352;50.888;4.466;2023-04-24T14:55:20;14.60;99.90
18446;DHT22;9352;50.888;4.466;2023-04-24T14:57:47;14.60;99.90
18446;DHT22;9352;50.888;4.466;2023-04-24T15:00:15;14.60;99.90
18446;DHT22;9352;50.888;4.466;2023-04-24T15:02:42;14.10;99.90
18446;DHT22;9352;50.888;4.466;2023-04-24T15:05:11;14.20;99.90
18446;DHT22;9352;50.888;4.466;2023-04-24T15:07:38;14.40;99.90
18446;DHT22;9352;50.888;4.466;2023-04-24T15:10:07;14.40;99.90
18446;DHT22;9352;50.888;4.466;2023-04-24T15:12:34;14.20;99.90
18446;DHT22;9352;50.888;4.466;2023-04-24T15:15:02;14.30;99.90
18446;DHT22;9352;50.888;4.466;2023-04-24T15:17:28;15.90;99.90
18446;DHT22;9352;50.888;4.466;2023-04-24T15:19:56;15.70;99.90
18446;DHT22;9352;50.888;4.466;2023-04-24T15:22:24;15.00;99.90
18446;DHT22;9352;50.888;4.466;2023-04-24T15:24:51;14.80;99.90
18446;DHT22;9352;50.888;4.466;2023-04-24T15:27:18;14.50;99.90
18446;DHT22;9352;50.888;4.466;2023-04-24T15:29:45;14.10;99.90
18446;DHT22;9352;50.888;4.466;2023-04-24T15:32:11;14.10;99.90
18446;DHT22;9352;50.888;4.466;2023-04-24T15:34:38;13.70;99.90
18446;DHT22;9352;50.888;4.466;2023-04-24T15:37:05;13.60;99.90
18446;DHT22;9352;50.888;4.466;2023-04-24T15:39:34;13.60;99.90
18446;DHT22;9352;50.888;4.466;2023-04-24T15:42:01;13.80;99.90
18446;DHT22;9352;50.888;4.466;2023-04-24T15:44:27;13.90;99.90
18446;DHT22;9352;50.888;4.466;2023-04-24T15:46:55;13.90;99.90
18446;DHT22;9352;50.888;4.466;2023-04-24T15:49:21;13.80;99.90
18446;DHT22;9352;50.888;4.466;2023-04-24T15:51:48;13.80;99.90
18446;DHT22;9352;50.888;4.466;2023-04-24T15:54:15;13.70;99.90
18446;DHT22;9352;50.888;4.466;2023-04-24T15:56:43;13.70;99.90
18446;DHT22;9352;50.888;4.466;2023-04-24T15:59:10;13.70;99.90
18446;DHT22;9352;50.888;4.466;2023-04-24T16:01:37;13.50;99.90
18446;DHT22;9352;50.888;4.466;2023-04-24T16:04:04;13.60;99.90
18446;DHT22;9352;50.888;4.466;2023-04-24T16:06:31;13.80;99.90
18446;DHT22;9352;50.888;4.466;2023-04-24T16:08:58;13.70;99.90
18446;DHT22;9352;50.888;4.466;2023-04-24T16:11:25;13.70;99.90